Time;durP1;ratioP1;P1;durP2;ratioP2;P2;SDS_P1;SDS_P2;PMS_P1;PMS_P2;Temp;Humidity;BMP_temperature;BMP_pressure;BME280_temperature;BME280_humidity;BME280_pressure;Samples;Min_cycle;Max_cycle;Signal;HPM_P1;HPM_P2
2021/12/22 02:16:26;;;;;;;;;;;;;;;;;;;;;
2021/12/22 02:34:51;;;;;;;;;;;;;;;;;;;;;
2021/12/22 02:40:37;;;;;;;42.40;18.57;;;-6.20;99.90;;;;;;5110593;23;20063;-94
2021/12/22 02:47:04;;;;;;;;;;;;;;;;;;;;;
2021/12/22 03:06:28;;;;;;;41.00;18.03;;;-6.30;99.90;;;;;;5091457;23;20085;-95
2021/12/22 03:09:40;;;;;;;41.77;17.50;;;-5.80;99.90;;;;;;4966868;28;20099;-95
2021/12/22 03:12:40;;;;;;;43.47;17.83;;;-6.10;99.90;;;;;;4916509;29;20112;-94
2021/12/22 03:19:40;;;;;;;39.67;18.03;;;-5.40;99.90;;;;;;4936500;29;20047;-95
2021/12/22 03:29:35;;;;;;;39.73;18.33;;;-7.10;99.90;;;;;;4860393;29;20045;-95
2021/12/22 03:36:40;;;;;;;;;;;-7.30;99.90;;;;;;4920004;29;20090;-91
2021/12/22 03:41:51;;;;;;;41.67;17.50;;;-6.40;99.90;;;;;;4934944;29;20048;-95
2021/12/22 03:44:26;;;;;;;38.20;17.37;;;-5.90;99.90;;;;;;4924223;29;20023;-94
2021/12/22 03:49:57;;;;;;;;;;;;;;;;;;;;;
2021/12/22 03:53:13;;;;;;;37.57;16.47;;;-6.10;99.90;;;;;;4905944;29;20114;-94
2021/12/22 03:59:23;;;;;;;38.63;17.10;;;-6.30;99.90;;;;;;4914771;29;20131;-94
2021/12/22 04:02:20;;;;;;;;;;;;;;;;;;;;;
2021/12/22 04:05:08;;;;;;;42.60;17.17;;;-5.30;99.90;;;;;;4901859;29;20176;-95
2021/12/22 04:07:46;;;;;;;44.60;18.47;;;-6.60;99.90;;;;;;4921087;29;20067;-95
2021/12/22 04:10:23;;;;;;;43.80;18.60;;;-6.60;99.90;;;;;;4927216;29;20115;-94
2021/12/22 04:13:34;;;;;;;;;;;;;;;;;;;;;
2021/12/22 04:17:08;;;;;;;43.40;17.80;;;-6.30;99.90;;;;;;5205985;23;20054;-95
2021/12/22 04:24:31;;;;;;;41.03;17.17;;;-5.30;99.90;;;;;;4957640;29;20066;-95
2021/12/22 04:27:20;;;;;;;40.87;18.50;;;-6.80;99.90;;;;;;4960320;23;20087;-94
2021/12/22 04:29:58;;;;;;;;;;;;;;;;;;;;;
2021/12/22 04:32:45;;;;;;;40.13;18.27;;;-6.60;99.90;;;;;;4920173;29;20050;-94
2021/12/22 04:35:15;;;;;;;39.00;17.63;;;-6.80;99.90;;;;;;4923685;29;20048;-95
2021/12/22 04:38:56;;;;;;;39.97;17.90;;;-6.10;99.90;;;;;;4934255;29;20047;-94
2021/12/22 04:42:37;;;;;;;39.50;16.53;;;-7.10;99.90;;;;;;4898175;29;20050;-94
2021/12/22 04:49:06;;;;;;;35.97;17.00;;;-6.60;99.90;;;;;;4922950;29;20055;-92
2021/12/22 04:55:32;;;;;;;38.77;15.77;;;-6.70;99.90;;;;;;5337084;23;20041;-94
2021/12/22 05:07:50;;;;;;;35.30;16.13;;;-6.90;99.90;;;;;;4908379;29;20056;-93
2021/12/22 05:10:38;;;;;;;34.00;15.30;;;-6.20;99.90;;;;;;4904033;29;20052;-95
2021/12/22 05:13:18;;;;;;;36.47;16.40;;;-6.60;99.90;;;;;;4854184;29;20182;-95
2021/12/22 05:15:52;;;;;;;35.70;16.07;;;-6.60;99.90;;;;;;4857268;29;20124;-94
2021/12/22 05:21:39;;;;;;;34.13;15.37;;;-5.90;99.90;;;;;;4885243;29;20553;-95
2021/12/22 05:24:20;;;;;;;36.67;15.53;;;-6.80;99.90;;;;;;4884190;29;20143;-95
2021/12/22 05:27:08;;;;;;;32.90;15.43;;;-6.70;99.90;;;;;;4885953;29;20112;-94
2021/12/22 05:29:46;;;;;;;32.93;15.07;;;-5.50;99.90;;;;;;4862426;29;20054;-94
2021/12/22 05:32:31;;;;;;;35.60;15.13;;;-6.50;99.90;;;;;;4846739;29;20143;-94
2021/12/22 05:35:24;;;;;;;34.85;16.38;;;-6.30;99.90;;;;;;4862187;29;20465;-93
2021/12/22 05:38:06;;;;;;;34.40;15.47;;;-7.00;99.90;;;;;;4972296;23;20051;-93
2021/12/22 05:45:19;;;;;;;33.00;14.97;;;-6.60;99.90;;;;;;4958784;29;20055;-95
2021/12/22 05:47:52;;;;;;;31.67;14.33;;;-7.50;99.90;;;;;;4959827;29;20087;-94
2021/12/22 05:50:50;;;;;;;34.07;14.93;;;-6.00;99.90;;;;;;4971827;28;20051;-94
2021/12/22 05:54:02;;;;;;;34.80;14.70;;;-6.60;99.90;;;;;;5055895;23;20062;-94
2021/12/22 05:57:35;;;;;;;30.33;14.40;;;-6.30;99.90;;;;;;4961529;28;20051;-94
2021/12/22 06:00:08;;;;;;;33.73;14.50;;;-6.80;99.90;;;;;;4970736;28;20050;-94
2021/12/22 06:02:37;;;;;;;32.78;15.25;;;-6.30;99.90;;;;;;4977730;28;20134;-94
2021/12/22 06:05:15;;;;;;;33.53;14.67;;;-6.30;99.90;;;;;;5008176;23;20110;-94
2021/12/22 06:07:44;;;;;;;33.93;14.57;;;-7.00;99.90;;;;;;4962591;28;20090;-94
2021/12/22 06:10:09;;;;;;;35.87;15.27;;;-6.90;99.90;;;;;;4953739;29;20101;-93
2021/12/22 06:12:35;;;;;;;34.07;15.20;;;-7.70;99.90;;;;;;4947424;29;20491;-94
2021/12/22 06:18:54;;;;;;;31.33;15.10;;;-6.70;99.90;;;;;;4957888;29;20490;-93
2021/12/22 06:25:26;;;;;;;38.93;17.17;;;-6.00;99.90;;;;;;4964498;28;20055;-94
2021/12/22 06:27:55;;;;;;;36.33;16.00;;;-7.00;99.90;;;;;;4972976;28;20055;-93
2021/12/22 06:30:21;;;;;;;37.27;16.30;;;-6.70;99.90;;;;;;4997979;23;20122;-93
2021/12/22 06:36:48;;;;;;;34.07;16.07;;;-6.00;99.90;;;;;;4976466;28;20045;-94
2021/12/22 06:39:34;;;;;;;34.80;15.63;;;-6.40;99.90;;;;;;4959351;28;20133;-94
2021/12/22 06:42:00;;;;;;;37.63;16.50;;;-7.30;99.90;;;;;;4958998;28;20039;-94
2021/12/22 06:44:30;;;;;;;34.90;15.83;;;-5.70;99.90;;;;;;4958874;28;20074;-94
2021/12/22 06:46:55;;;;;;;31.50;15.07;;;-5.80;99.90;;;;;;4959453;28;20046;-93
2021/12/22 06:49:43;;;;;;;39.13;16.37;;;-6.90;99.90;;;;;;4959111;28;20043;-94
2021/12/22 06:53:06;;;;;;;37.67;17.93;;;-6.40;99.90;;;;;;4966504;23;20145;-93
2021/12/22 06:56:22;;;;;;;37.10;16.37;;;-7.40;99.90;;;;;;4950778;23;20055;-86
2021/12/22 06:58:57;;;;;;;39.43;16.83;;;-6.10;99.90;;;;;;4937421;29;20051;-86
2021/12/22 07:01:34;;;;;;;39.07;17.33;;;-7.30;99.90;;;;;;4952249;29;20043;-86
2021/12/22 07:04:00;;;;;;;38.23;16.63;;;-6.30;99.90;;;;;;4963669;23;20052;-86
2021/12/22 07:06:26;;;;;;;39.97;17.40;;;-6.80;99.90;;;;;;4956467;28;20047;-83
2021/12/22 07:08:52;;;;;;;35.00;16.40;;;-6.90;99.90;;;;;;4973481;28;20046;-83
2021/12/22 07:11:30;;;;;;;38.30;16.93;;;-6.90;99.90;;;;;;4955765;28;20380;-83
2021/12/22 07:13:55;;;;;;;40.77;17.73;;;-7.10;99.90;;;;;;4973881;28;20098;-83
2021/12/22 07:16:21;;;;;;;35.77;17.20;;;-6.90;99.90;;;;;;4955376;28;20080;-81
2021/12/22 07:18:47;;;;;;;38.77;17.10;;;-6.80;99.90;;;;;;4958621;28;20042;-83
2021/12/22 07:21:12;;;;;;;36.13;16.43;;;-6.70;99.90;;;;;;4976893;28;20418;-83
2021/12/22 07:23:38;;;;;;;42.50;17.33;;;-6.70;99.90;;;;;;4959313;28;20043;-83
2021/12/22 07:26:13;;;;;;;33.97;15.13;;;-6.70;99.90;;;;;;4960209;28;20069;-83
2021/12/22 07:29:01;;;;;;;35.87;15.80;;;-6.70;99.90;;;;;;4960028;28;20056;-83
2021/12/22 07:31:47;;;;;;;36.37;15.33;;;-7.40;99.90;;;;;;4959917;28;20121;-84
2021/12/22 07:34:34;;;;;;;37.27;16.30;;;-6.80;99.90;;;;;;4959814;28;20050;-83
2021/12/22 07:37:40;;;;;;;37.57;16.87;;;-6.60;99.90;;;;;;4961438;28;20050;-83
2021/12/22 07:40:24;;;;;;;34.97;15.77;;;-6.70;99.90;;;;;;4960213;28;20061;-83
2021/12/22 07:42:59;;;;;;;32.75;15.68;;;-6.10;99.90;;;;;;4962183;28;20445;-83
2021/12/22 07:45:27;;;;;;;37.00;17.37;;;-6.90;99.90;;;;;;4959594;28;20038;-84
2021/12/22 07:48:03;;;;;;;37.33;17.20;;;-6.70;99.90;;;;;;4959838;28;20498;-83
2021/12/22 07:50:37;;;;;;;40.10;17.40;;;-6.60;99.90;;;;;;4962555;28;20046;-84
2021/12/22 07:53:03;;;;;;;36.93;16.30;;;-5.50;99.90;;;;;;4976256;28;20035;-83
2021/12/22 07:55:28;;;;;;;42.67;17.93;;;-6.70;99.90;;;;;;4959713;28;20129;-82
2021/12/22 07:58:15;;;;;;;40.60;17.50;;;-6.50;99.90;;;;;;4959484;28;20045;-84
2021/12/22 08:01:06;;;;;;;36.70;17.43;;;-6.30;99.90;;;;;;4958850;28;20050;-82
2021/12/22 08:03:41;;;;;;;42.07;19.23;;;-6.70;99.90;;;;;;4959250;28;20058;-82
2021/12/22 08:06:09;;;;;;;41.03;18.70;;;-6.60;99.90;;;;;;4958283;28;20050;-82
2021/12/22 08:08:47;;;;;;;36.50;17.60;;;-5.70;99.90;;;;;;4959541;28;20055;-82
2021/12/22 08:11:22;;;;;;;45.70;19.33;;;-6.50;99.90;;;;;;4959741;28;20053;-84
2021/12/22 08:13:51;;;;;;;42.33;18.57;;;-5.80;99.90;;;;;;4978302;28;20060;-82
2021/12/22 08:16:16;;;;;;;39.90;18.50;;;-6.40;99.90;;;;;;4959796;28;20105;-83
2021/12/22 08:18:42;;;;;;;43.70;19.63;;;-6.40;99.90;;;;;;4959175;28;20043;-83
2021/12/22 08:21:07;;;;;;;42.10;18.47;;;-6.30;99.90;;;;;;4958444;28;20042;-83
2021/12/22 08:23:51;;;;;;;45.23;19.87;;;-6.40;99.90;;;;;;4957532;28;20046;-83
2021/12/22 08:26:33;;;;;;;41.72;18.77;;;-7.30;99.90;;;;;;4959232;28;20039;-83
2021/12/22 08:28:59;;;;;;;43.23;18.17;;;-6.10;99.90;;;;;;4958626;28;20055;-83
2021/12/22 08:31:43;;;;;;;45.73;19.07;;;-6.40;99.90;;;;;;4959265;28;20066;-83
2021/12/22 08:40:00;;;;;;;39.60;17.63;;;-7.30;99.90;;;;;;4958775;28;20047;-82
2021/12/22 08:42:27;;;;;;;42.37;18.53;;;-5.90;99.90;;;;;;4958140;28;20051;-82
2021/12/22 08:44:59;;;;;;;37.13;17.87;;;-5.80;99.90;;;;;;4958424;28;20046;-83
2021/12/22 08:47:24;;;;;;;41.30;19.20;;;-5.90;99.90;;;;;;4958609;28;20045;-82
2021/12/22 08:50:03;;;;;;;40.80;17.80;;;-5.60;99.90;;;;;;4957782;28;20133;-85
2021/12/22 08:52:29;;;;;;;37.47;18.30;;;-4.30;99.90;;;;;;4958744;28;20081;-83
2021/12/22 08:54:55;;;;;;;43.43;19.57;;;;;;;;;;4957498;28;20128;-82
2021/12/22 08:57:31;;;;;;;40.30;17.60;;;-5.30;99.90;;;;;;4958695;28;20058;-83
2021/12/22 08:59:57;;;;;;;43.83;19.70;;;-5.20;99.90;;;;;;4957570;28;20070;-83
2021/12/22 09:02:26;;;;;;;43.17;17.70;;;-5.30;99.90;;;;;;4974058;28;20055;-83
2021/12/22 09:04:52;;;;;;;39.70;19.00;;;-5.20;99.90;;;;;;4957754;28;20171;-83
2021/12/22 09:07:23;;;;;;;39.23;17.73;;;-5.20;99.90;;;;;;4958048;28;20048;-84
2021/12/22 09:09:49;;;;;;;44.37;19.27;;;-4.70;99.90;;;;;;4955283;28;20125;-84
2021/12/22 09:12:15;;;;;;;42.90;18.53;;;-5.40;99.90;;;;;;4957874;28;20134;-84
2021/12/22 09:14:47;;;;;;;40.10;18.03;;;-5.20;99.90;;;;;;4957792;28;20043;-84
2021/12/22 09:17:18;;;;;;;39.13;18.00;;;-4.70;99.90;;;;;;4956767;28;20134;-83
2021/12/22 09:19:48;;;;;;;46.63;19.57;;;-4.80;99.90;;;;;;4956800;28;20098;-83
2021/12/22 09:22:21;;;;;;;42.80;17.87;;;-4.30;99.90;;;;;;4954496;28;20056;-84
2021/12/22 09:24:53;;;;;;;41.42;18.33;;;-4.50;99.90;;;;;;4956481;28;20134;-84
2021/12/22 09:27:40;;;;;;;42.23;19.10;;;-4.80;99.90;;;;;;4957182;28;20078;-83
2021/12/22 09:30:25;;;;;;;45.63;18.70;;;-4.70;99.90;;;;;;4955823;28;20068;-83
2021/12/22 09:33:00;;;;;;;41.63;18.30;;;-4.60;99.90;;;;;;4958557;28;20450;-83
2021/12/22 09:35:27;;;;;;;43.20;18.53;;;-4.60;99.90;;;;;;4973678;28;20059;-83
2021/12/22 09:38:07;;;;;;;46.37;18.67;;;-4.50;99.90;;;;;;4941123;28;20047;-83
2021/12/22 09:40:46;;;;;;;43.70;16.97;;;-4.40;99.90;;;;;;4963083;28;20058;-83
2021/12/22 09:43:28;;;;;;;44.90;18.97;;;-4.60;99.90;;;;;;4957646;28;20047;-83
2021/12/22 09:46:08;;;;;;;41.07;18.20;;;-4.50;99.90;;;;;;4956488;28;20062;-83
2021/12/22 09:48:51;;;;;;;41.63;18.30;;;-4.30;99.90;;;;;;4957557;28;20042;-82
2021/12/22 09:54:18;;;;;;;41.47;18.50;;;-4.40;99.90;;;;;;4956785;28;20468;-82
2021/12/22 09:56:47;;;;;;;44.10;18.53;;;-4.20;99.90;;;;;;4957275;28;20136;-82
2021/12/22 09:59:21;;;;;;;46.80;19.33;;;-4.10;99.90;;;;;;4955807;28;20046;-82
2021/12/22 10:01:56;;;;;;;46.70;20.17;;;-4.00;99.90;;;;;;4953970;28;20185;-82
2021/12/22 10:04:34;;;;;;;45.20;22.23;;;-4.00;99.90;;;;;;4956472;28;20051;-82
2021/12/22 10:07:26;;;;;;;48.63;22.93;;;-4.10;99.90;;;;;;4955377;28;20046;-82
2021/12/22 10:10:02;;;;;;;48.77;23.87;;;-4.00;99.90;;;;;;4970153;28;20050;-82
2021/12/22 10:12:31;;;;;;;53.63;25.33;;;-3.90;99.90;;;;;;4954114;28;20039;-82
2021/12/22 10:15:35;;;;;;;47.97;23.57;;;-3.80;99.90;;;;;;4956580;28;20043;-85
2021/12/22 10:21:26;;;;;;;44.80;23.08;;;-3.50;99.90;;;;;;4955454;28;20086;-85
2021/12/22 10:23:54;;;;;;;43.53;22.00;;;-2.60;99.90;;;;;;4955933;28;20049;-85
2021/12/22 10:26:27;;;;;;;44.03;21.73;;;-3.50;99.90;;;;;;4947580;28;20058;-86
2021/12/22 10:29:11;;;;;;;42.90;21.45;;;-2.60;99.90;;;;;;4959413;28;20494;-87
2021/12/22 10:38:53;;;;;;;38.90;19.07;;;-2.40;99.90;;;;;;4974856;28;20043;-83
2021/12/22 10:41:34;;;;;;;39.10;17.97;;;-3.00;99.90;;;;;;4956396;28;20454;-85
2021/12/22 10:43:59;;;;;;;37.37;18.40;;;-3.60;99.90;;;;;;4956281;28;20043;-85
2021/12/22 10:46:40;;;;;;;38.10;18.57;;;-3.10;99.90;;;;;;4958603;28;20046;-83
2021/12/22 10:49:37;;;;;;;34.73;16.53;;;-3.00;99.90;;;;;;4955803;28;20574;-86
2021/12/22 10:52:03;;;;;;;34.00;16.43;;;-1.70;99.90;;;;;;4972241;28;20054;-82
2021/12/22 10:55:32;;;;;;;34.37;16.70;;;-2.50;99.90;;;;;;4954978;28;20379;-83
2021/12/22 10:57:57;;;;;;;31.37;15.20;;;-2.50;99.90;;;;;;4959297;28;20511;-85
2021/12/22 11:00:25;;;;;;;31.57;16.07;;;-2.70;99.90;;;;;;4956264;28;20042;-85
2021/12/22 11:03:14;;;;;;;32.83;15.37;;;-2.50;99.90;;;;;;4952891;28;20050;-85
2021/12/22 11:05:51;;;;;;;30.53;14.90;;;-2.50;99.90;;;;;;4955719;28;20050;-86
2021/12/22 11:08:23;;;;;;;32.90;15.93;;;-2.20;99.90;;;;;;4951557;29;20484;-85
2021/12/22 11:11:11;;;;;;;32.10;15.20;;;-2.30;99.90;;;;;;4953665;29;20043;-85
2021/12/22 11:13:43;;;;;;;30.00;15.00;;;-1.10;99.90;;;;;;4936989;29;20445;-84
2021/12/22 11:16:29;;;;;;;29.83;15.33;;;-1.30;99.90;;;;;;4953647;29;20097;-84
2021/12/22 11:19:07;;;;;;;30.00;14.80;;;-2.10;99.90;;;;;;4955266;28;20045;-84
2021/12/22 11:22:03;;;;;;;28.93;14.37;;;-2.10;99.90;;;;;;4975123;28;20101;-85
2021/12/22 11:24:50;;;;;;;27.80;14.17;;;-2.50;99.90;;;;;;4955190;28;20050;-85
2021/12/22 11:27:27;;;;;;;29.03;14.80;;;-1.90;99.90;;;;;;4958653;28;20047;-83
2021/12/22 11:30:06;;;;;;;28.83;14.53;;;-1.70;99.90;;;;;;4955698;28;20054;-84
2021/12/22 11:32:47;;;;;;;29.63;14.77;;;-1.60;99.90;;;;;;4957156;28;20511;-86
2021/12/22 11:35:17;;;;;;;27.13;13.97;;;-1.70;99.90;;;;;;4956233;28;20054;-85
2021/12/22 11:37:51;;;;;;;27.27;13.77;;;-1.40;99.90;;;;;;4972135;28;20043;-83
2021/12/22 11:40:18;;;;;;;26.20;13.60;;;-1.40;99.90;;;;;;4956739;28;20046;-84
2021/12/22 11:42:45;;;;;;;26.63;13.83;;;-1.60;99.90;;;;;;4955815;28;20053;-84
2021/12/22 11:48:18;;;;;;;26.57;12.93;;;-1.30;99.90;;;;;;4957516;28;20050;-83
2021/12/22 11:50:48;;;;;;;25.87;12.77;;;-1.40;99.90;;;;;;4972692;28;20047;-83
2021/12/22 11:53:43;;;;;;;25.10;12.80;;;-0.30;99.90;;;;;;4945865;29;20077;-85
2021/12/22 11:56:27;;;;;;;;;;;-0.60;99.90;;;;;;4951614;29;20134;-84
2021/12/22 11:59:02;;;;;;;23.45;12.18;;;-1.20;99.90;;;;;;4948918;29;19930;-83
2021/12/22 12:02:47;;;;;;;24.57;12.57;;;-0.60;99.90;;;;;;4954816;29;20499;-86
2021/12/22 12:05:32;;;;;;;25.50;12.23;;;-1.90;99.90;;;;;;4913311;23;20054;-88
2021/12/22 12:08:07;;;;;;;24.10;12.57;;;-1.10;99.90;;;;;;4920413;29;20059;-83
2021/12/22 12:10:49;;;;;;;24.13;12.47;;;-1.50;99.90;;;;;;4937835;29;20059;-82
2021/12/22 12:13:27;;;;;;;27.47;12.87;;;-1.40;99.90;;;;;;4919964;29;20091;-84
2021/12/22 12:21:50;;;;;;;25.10;12.05;;;-1.20;99.90;;;;;;4920894;29;20043;-85
2021/12/22 12:24:32;;;;;;;22.15;12.05;;;-1.40;99.90;;;;;;4921259;29;20504;-85
2021/12/22 12:26:59;;;;;;;25.80;13.10;;;-1.30;99.90;;;;;;4920085;29;20488;-85
2021/12/22 12:29:56;;;;;;;24.87;12.87;;;-1.30;99.90;;;;;;4950012;23;20048;-84
2021/12/22 12:32:49;;;;;;;27.87;13.77;;;-1.30;99.90;;;;;;4920821;29;20044;-84
2021/12/22 12:35:23;;;;;;;26.97;12.93;;;-1.60;99.90;;;;;;4920710;29;20087;-87
2021/12/22 12:37:58;;;;;;;22.53;10.83;;;-1.40;99.90;;;;;;4937505;29;20048;-86
2021/12/22 12:46:57;;;;;;;23.83;11.57;;;-1.10;99.90;;;;;;4920990;29;20047;-87
2021/12/22 12:49:22;;;;;;;;;;;-0.90;99.90;;;;;;4918370;29;20047;-85
2021/12/22 12:51:54;;;;;;;22.63;11.80;;;-0.10;99.90;;;;;;4920533;29;20288;-85
2021/12/22 12:54:39;;;;;;;21.83;11.90;;;-0.20;99.90;;;;;;4921340;29;20062;-84
2021/12/22 12:57:14;;;;;;;23.60;12.10;;;-0.90;99.90;;;;;;4920855;29;20136;-84
2021/12/22 12:59:40;;;;;;;21.73;11.80;;;-0.70;99.90;;;;;;4920504;29;20091;-83
2021/12/22 13:05:19;;;;;;;21.90;12.63;;;-0.80;99.90;;;;;;4903954;29;20058;-83
2021/12/22 13:08:17;;;;;;;19.93;11.67;;;-1.00;99.90;;;;;;4920113;29;20048;-85
2021/12/22 13:11:20;;;;;;;21.87;12.40;;;-1.20;99.90;;;;;;4920212;29;20552;-83
2021/12/22 13:15:46;;;;;;;24.40;12.47;;;-1.50;99.90;;;;;;4914916;23;20047;-83
2021/12/22 13:16:47;;;;;;;24.50;12.67;;;;;;;;;;4953056;29;20182;-83
2021/12/22 13:19:47;;;;;;;22.17;12.27;;;-0.90;99.90;;;;;;4938678;29;20517;-84
2021/12/22 13:22:36;;;;;;;23.00;11.57;;;-0.70;99.90;;;;;;4940543;29;20058;-85
2021/12/22 13:25:21;;;;;;;22.93;12.03;;;-1.20;99.90;;;;;;4938868;29;20137;-85
2021/12/22 13:27:56;;;;;;;22.83;12.30;;;-0.90;99.90;;;;;;4938781;29;20501;-84
2021/12/22 13:30:39;;;;;;;22.03;12.33;;;-1.70;99.90;;;;;;4938019;29;20047;-85
2021/12/22 13:33:19;;;;;;;22.23;12.10;;;0.10;99.90;;;;;;4938496;29;20049;-85
2021/12/22 13:35:55;;;;;;;22.07;12.27;;;-1.30;99.90;;;;;;4938292;29;20102;-85
2021/12/22 13:38:59;;;;;;;23.33;12.43;;;-1.80;99.90;;;;;;4937948;29;20049;-85
2021/12/22 13:41:46;;;;;;;24.50;13.10;;;-1.10;99.90;;;;;;4938543;29;20073;-87
2021/12/22 13:44:12;;;;;;;25.33;13.43;;;-1.60;99.90;;;;;;4937504;29;20047;-87
2021/12/22 13:54:02;;;;;;;21.83;11.97;;;0.50;99.90;;;;;;4919107;29;20480;-86
2021/12/22 13:57:09;;;;;;;21.70;12.43;;;0.20;99.90;;;;;;4935337;29;20083;-85
2021/12/22 13:59:51;;;;;;;;;;;;;;;;;;;;;
2021/12/22 14:02:43;;;;;;;22.07;11.97;;;-1.00;99.90;;;;;;4848839;29;20498;-86
2021/12/22 14:09:48;;;;;;;23.33;12.90;;;-1.20;99.90;;;;;;4877455;29;20108;-87
2021/12/22 14:12:44;;;;;;;22.27;12.23;;;-1.10;99.90;;;;;;4845568;29;20053;-86
2021/12/22 14:27:52;;;;;;;24.03;12.67;;;-0.30;99.90;;;;;;4875862;29;20089;-86
2021/12/22 14:30:43;;;;;;;22.70;12.63;;;-0.30;99.90;;;;;;4918822;29;20051;-87
2021/12/22 14:33:30;;;;;;;;;;;;;;;;;;;;;
2021/12/22 14:36:14;;;;;;;24.00;12.70;;;-2.00;99.90;;;;;;4907230;29;20063;-84
2021/12/22 14:38:52;;;;;;;23.10;12.40;;;-2.50;99.90;;;;;;4918804;29;20048;-85
2021/12/22 14:44:40;;;;;;;22.87;12.90;;;-2.00;99.90;;;;;;4861287;29;20069;-86
2021/12/22 14:47:22;;;;;;;23.67;12.73;;;-1.30;99.90;;;;;;4861077;29;20069;-86
2021/12/22 14:49:50;;;;;;;24.10;13.13;;;-2.00;99.90;;;;;;4877494;29;20086;-82
2021/12/22 14:52:19;;;;;;;23.50;13.00;;;-1.80;99.90;;;;;;4886099;29;20049;-84
2021/12/22 14:54:45;;;;;;;23.57;13.10;;;-2.10;99.90;;;;;;4882392;29;20025;-85
2021/12/22 15:06:29;;;;;;;23.10;12.73;;;-2.10;99.90;;;;;;4912922;29;20580;-86
2021/12/22 15:08:56;;;;;;;24.30;12.33;;;-2.20;99.90;;;;;;4897559;29;20060;-84
2021/12/22 15:11:23;;;;;;;21.93;12.53;;;-1.90;99.90;;;;;;4935273;28;20470;-85
2021/12/22 15:14:10;;;;;;;22.73;13.20;;;-2.00;99.90;;;;;;4974383;28;20035;-87
2021/12/22 15:16:55;;;;;;;22.63;11.83;;;-1.60;99.90;;;;;;4955830;28;20086;-85
2021/12/22 15:19:39;;;;;;;22.93;12.57;;;-2.50;99.90;;;;;;4956961;28;20053;-84
2021/12/22 15:22:37;;;;;;;25.77;13.48;;;-1.10;99.90;;;;;;4972412;28;20049;-84
2021/12/22 15:25:12;;;;;;;24.10;12.33;;;-1.70;99.90;;;;;;4956396;28;20049;-83
2021/12/22 15:27:38;;;;;;;22.13;12.10;;;-2.40;99.90;;;;;;4956411;28;20039;-83
2021/12/22 15:30:19;;;;;;;21.83;11.70;;;-2.50;99.90;;;;;;4955957;28;20069;-86
2021/12/22 15:32:57;;;;;;;22.37;11.60;;;-2.10;99.90;;;;;;4956296;28;20042;-83
2021/12/22 15:35:30;;;;;;;22.30;12.47;;;-1.80;99.90;;;;;;4956373;28;20051;-83
2021/12/22 15:38:11;;;;;;;23.55;11.82;;;-2.00;99.90;;;;;;4972612;28;20039;-82
2021/12/22 15:40:39;;;;;;;23.50;12.43;;;-1.50;99.90;;;;;;4960326;28;20514;-83
2021/12/22 15:43:08;;;;;;;23.90;13.53;;;-2.50;99.90;;;;;;4976465;28;20058;-82
2021/12/22 15:45:58;;;;;;;25.77;13.10;;;-2.50;99.90;;;;;;4960232;28;20043;-82
2021/12/22 15:48:27;;;;;;;22.43;12.47;;;-1.50;99.90;;;;;;4960055;28;20069;-83
2021/12/22 15:51:02;;;;;;;22.40;12.37;;;-2.70;99.90;;;;;;4959079;28;20451;-85
2021/12/22 15:53:28;;;;;;;22.50;12.57;;;-2.80;99.90;;;;;;4959979;28;20055;-83
2021/12/22 15:55:56;;;;;;;25.43;12.97;;;-2.70;99.90;;;;;;4959410;28;20047;-86
2021/12/22 15:58:27;;;;;;;23.90;12.77;;;-2.60;99.90;;;;;;4956947;28;20043;-83
2021/12/22 16:01:07;;;;;;;22.37;12.57;;;-2.70;99.90;;;;;;4975640;28;20058;-82
2021/12/22 16:03:49;;;;;;;22.13;12.87;;;-2.80;99.90;;;;;;4976609;28;20138;-82
2021/12/22 16:06:34;;;;;;;24.90;13.13;;;-1.90;99.90;;;;;;4959359;28;20054;-83
2021/12/22 16:09:18;;;;;;;28.73;13.47;;;-2.50;99.90;;;;;;4976822;28;20070;-82
2021/12/22 16:11:44;;;;;;;22.80;12.15;;;-2.90;99.90;;;;;;4957981;28;20098;-82
2021/12/22 16:14:25;;;;;;;21.93;12.20;;;-2.60;99.90;;;;;;4958470;28;20051;-82
2021/12/22 16:16:51;;;;;;;26.03;13.53;;;-2.90;99.90;;;;;;4976350;28;20035;-84
2021/12/22 16:19:26;;;;;;;23.33;13.33;;;-2.60;99.90;;;;;;4958429;28;20125;-84
2021/12/22 16:21:51;;;;;;;23.57;13.00;;;-2.80;99.90;;;;;;4976107;28;20105;-86
2021/12/22 16:25:50;;;;;;;21.67;12.80;;;-1.80;99.90;;;;;;4959503;28;20054;-84
2021/12/22 16:28:50;;;;;;;20.87;12.13;;;-2.30;99.90;;;;;;4946336;28;20054;-87
2021/12/22 16:31:18;;;;;;;23.43;12.60;;;-3.00;99.90;;;;;;4958927;28;20051;-86
2021/12/22 16:33:44;;;;;;;24.20;12.20;;;-2.40;99.90;;;;;;4958066;28;20484;-86
2021/12/22 16:36:09;;;;;;;22.73;12.00;;;-2.40;99.90;;;;;;4975852;28;20130;-86
2021/12/22 16:38:41;;;;;;;23.27;13.43;;;-2.60;99.90;;;;;;4960192;28;20049;-86
2021/12/22 16:41:25;;;;;;;23.53;12.67;;;-2.70;99.90;;;;;;4975844;28;20043;-86
2021/12/22 16:43:51;;;;;;;22.90;12.50;;;-2.40;99.90;;;;;;4971106;23;20059;-86
2021/12/22 16:46:17;;;;;;;22.83;12.37;;;-2.70;99.90;;;;;;4936400;29;20051;-86
2021/12/22 16:48:43;;;;;;;24.40;13.00;;;-2.70;99.90;;;;;;4920284;29;20082;-86
2021/12/22 16:51:08;;;;;;;23.43;12.83;;;-2.70;99.90;;;;;;4921588;29;20047;-87
2021/12/22 16:53:34;;;;;;;22.77;13.10;;;-2.70;99.90;;;;;;4921200;29;20058;-86
2021/12/22 16:56:02;;;;;;;23.37;12.97;;;-2.70;99.90;;;;;;4940849;29;20046;-82
2021/12/22 16:58:28;;;;;;;21.83;12.47;;;-2.70;99.90;;;;;;4919030;29;20392;-86
2021/12/22 17:01:04;;;;;;;23.57;12.63;;;-2.00;99.90;;;;;;4919323;29;20040;-94
2021/12/22 17:07:09;;;;;;;24.08;12.70;;;-2.70;99.90;;;;;;5070903;23;20497;-93
2021/12/22 17:10:32;;;;;;;;;;;;;;;;;;;;;
2021/12/22 17:27:18;;;;;;;22.87;12.63;;;-3.30;99.90;;;;;;4868197;29;20113;-94
2021/12/22 17:30:04;;;;;;;24.02;12.50;;;-2.70;99.90;;;;;;4909925;29;20413;-93
2021/12/22 17:33:22;;;;;;;21.43;12.00;;;-2.70;99.90;;;;;;4987513;23;20143;-95
2021/12/22 17:35:55;;;;;;;22.40;12.37;;;-2.70;99.90;;;;;;4954053;29;20051;-93
2021/12/22 17:38:42;;;;;;;23.40;12.87;;;-1.40;99.90;;;;;;5032406;23;20500;-94
2021/12/22 17:44:01;;;;;;;24.03;12.73;;;-2.70;99.90;;;;;;4982239;23;20077;-94
2021/12/22 17:46:33;;;;;;;22.30;12.80;;;-2.80;99.90;;;;;;4968618;28;20106;-92
2021/12/22 17:49:11;;;;;;;22.07;12.30;;;-0.90;99.90;;;;;;4975741;28;20066;-92
2021/12/22 17:51:53;;;;;;;;;;;;;;;;;;;;;
2021/12/22 17:54:53;;;;;;;22.52;12.57;;;-1.80;99.90;;;;;;4954881;28;20065;-94
2021/12/22 17:57:29;;;;;;;23.45;11.93;;;-2.90;99.90;;;;;;4961032;28;20046;-93
2021/12/22 18:00:00;;;;;;;23.97;12.37;;;-2.40;99.90;;;;;;4974318;23;20134;-94
2021/12/22 18:02:49;;;;;;;23.60;12.83;;;-3.10;99.90;;;;;;4959267;28;20047;-93
2021/12/22 18:05:55;;;;;;;21.83;12.47;;;-2.90;99.90;;;;;;4959653;28;20070;-94
2021/12/22 18:11:25;;;;;;;21.57;12.50;;;-2.90;99.90;;;;;;4941893;28;20046;-94
2021/12/22 18:13:50;;;;;;;22.17;11.80;;;-3.00;99.90;;;;;;4960952;28;20042;-95
2021/12/22 18:16:16;;;;;;;24.83;12.83;;;-1.70;99.90;;;;;;4957296;28;20132;-95
2021/12/22 18:25:49;;;;;;;23.50;13.23;;;-2.80;99.90;;;;;;4946543;28;20048;-96
2021/12/22 18:29:16;;;;;;;;;;;;;;;;;;;;;
2021/12/22 18:36:00;;;;;;;23.70;12.80;;;-3.60;99.90;;;;;;4935315;29;20404;-96
2021/12/22 19:02:22;;;;;;;;;;;;;;;;;;;;;
2021/12/22 19:26:07;;;;;;;24.07;12.47;;;-2.90;99.90;;;;;;5139141;23;20078;-95
2021/12/22 19:31:45;;;;;;;22.57;12.40;;;-3.30;99.90;;;;;;5168298;23;20059;-94
2021/12/22 19:41:44;;;;;;;24.08;13.10;;;-2.60;99.90;;;;;;5255614;23;20111;-95
2021/12/22 20:18:50;;;;;;;;;;;;;;;;;;;;;
2021/12/22 20:29:19;;;;;;;26.43;14.63;;;-3.10;99.90;;;;;;4903314;29;20501;-95
2021/12/22 20:31:48;;;;;;;25.47;14.17;;;-2.50;99.90;;;;;;4927881;23;20590;-96
2021/12/22 20:34:50;;;;;;;24.37;14.53;;;-2.70;99.90;;;;;;4946661;29;20051;-96
2021/12/22 20:38:04;;;;;;;25.93;15.33;;;-1.30;99.90;;;;;;4941733;29;20431;-95
2021/12/22 21:02:38;;;;;;;;;;;;;;;;;;;;;
2021/12/22 21:05:51;;;;;;;28.90;15.67;;;-1.60;99.90;;;;;;4965114;28;20109;-95
2021/12/22 21:08:32;;;;;;;27.17;16.20;;;-2.70;99.90;;;;;;4968909;23;20071;-96
2021/12/22 21:11:47;;;;;;;;;;;;;;;;;;;;;
2021/12/22 21:22:42;;;;;;;28.57;16.90;;;-2.90;99.90;;;;;;4946469;23;20302;-95
2021/12/22 21:25:23;;;;;;;;;;;;;;;;;;;;;
2021/12/22 21:39:28;;;;;;;36.27;19.63;;;-2.00;99.90;;;;;;5002424;23;20062;-94
2021/12/22 21:59:05;;;;;;;32.35;18.30;;;-3.20;99.90;;;;;;4899454;29;20104;-94
2021/12/22 22:27:21;;;;;;;33.77;17.67;;;-2.70;99.90;;;;;;4928838;29;20116;-95
2021/12/22 22:54:00;;;;;;;33.63;18.73;;;-2.60;99.90;;;;;;3255011;23;20022;31
